createdAt,value
2022-11-23T00:01:32.907Z,9.70
2022-11-23T00:04:08.969Z,7.53
2022-11-23T00:06:39.694Z,10.15
2022-11-23T00:09:27.484Z,8.60
2022-11-23T00:11:56.744Z,9.70
2022-11-23T00:14:23.928Z,11.45
2022-11-23T00:16:51.007Z,7.63
2022-11-23T00:19:18.011Z,7.78
2022-11-23T00:21:45.018Z,7.10
2022-11-23T00:24:15.095Z,8.15
2022-11-23T00:26:50.360Z,10.13
2022-11-23T00:29:17.307Z,9.07
2022-11-23T00:31:44.298Z,9.25
2022-11-23T00:34:13.551Z,9.95
2022-11-23T00:36:40.470Z,8.75
2022-11-23T00:39:07.771Z,8.38
2022-11-23T00:41:41.005Z,8.95
2022-11-23T00:44:08.765Z,8.75
2022-11-23T00:46:36.569Z,8.32
2022-11-23T00:49:06.929Z,9.43
2022-11-23T00:51:38.366Z,10.85
2022-11-23T00:54:10.046Z,10.77
2022-11-23T00:56:40.903Z,10.95
2022-11-23T00:59:07.850Z,9.40
2022-11-23T01:01:37.401Z,9.93
2022-11-23T01:04:07.129Z,8.70
2022-11-23T01:06:38.463Z,10.35
2022-11-23T01:09:18.013Z,8.07
2022-11-23T01:11:45.666Z,8.45
2022-11-23T01:14:13.489Z,7.93
2022-11-23T01:16:45.450Z,8.13
2022-11-23T01:19:17.569Z,6.53
2022-11-23T01:21:48.112Z,6.25
2022-11-23T01:24:22.056Z,7.25
2022-11-23T01:26:53.875Z,10.68
2022-11-23T01:29:21.726Z,9.18
2022-11-23T01:31:51.652Z,10.00
2022-11-23T01:34:18.967Z,10.05
2022-11-23T01:36:52.686Z,8.80
2022-11-23T01:39:21.599Z,6.60
2022-11-23T01:41:52.434Z,9.00
2022-11-23T01:44:34.098Z,8.85
2022-11-23T01:47:06.341Z,8.32
2022-11-23T01:49:52.015Z,7.63
2022-11-23T01:52:23.911Z,7.18
2022-11-23T01:54:55.167Z,7.07
2022-11-23T01:57:37.968Z,8.85
2022-11-23T02:00:07.334Z,7.32
2022-11-23T02:05:11.156Z,8.23
2022-11-23T02:07:39.697Z,8.15
2022-11-23T02:10:07.335Z,9.25
2022-11-23T02:12:34.349Z,8.55
2022-11-23T02:15:02.763Z,9.52
2022-11-23T02:17:30.827Z,8.18
2022-11-23T02:20:08.466Z,7.88
2022-11-23T02:22:47.780Z,9.23
2022-11-23T02:25:44.483Z,9.23
2022-11-23T02:28:15.103Z,8.40
2022-11-23T02:33:28.083Z,8.75
2022-11-23T02:36:02.464Z,9.80
2022-11-23T02:38:34.241Z,9.13
2022-11-23T02:41:01.527Z,7.80
2022-11-23T02:43:28.728Z,11.45
2022-11-23T02:46:01.496Z,9.68
2022-11-23T02:48:30.016Z,8.85
2022-11-23T02:50:57.078Z,10.23
2022-11-23T02:53:24.611Z,10.55
2022-11-23T02:55:53.121Z,9.50
2022-11-23T02:58:20.180Z,9.02
2022-11-23T03:00:47.370Z,8.85
2022-11-23T03:03:18.192Z,8.52
2022-11-23T03:05:45.220Z,9.70
2022-11-23T03:08:12.291Z,8.65
2022-11-23T03:10:40.637Z,7.82
2022-11-23T03:13:07.867Z,10.48
2022-11-23T03:15:37.504Z,7.95
2022-11-23T03:18:05.668Z,9.93
2022-11-23T03:20:33.172Z,13.07
2022-11-23T03:23:00.282Z,6.75
2022-11-23T03:25:27.425Z,9.02
2022-11-23T03:28:00.113Z,7.53
2022-11-23T03:30:27.718Z,7.68
2022-11-23T03:32:54.933Z,6.93
2022-11-23T03:35:23.788Z,7.03
2022-11-23T03:38:14.061Z,9.88
2022-11-23T03:40:45.779Z,8.45
2022-11-23T03:43:28.037Z,7.93
2022-11-23T03:45:54.989Z,7.15
2022-11-23T03:48:23.035Z,9.00
2022-11-23T03:50:52.363Z,9.48
2022-11-23T03:53:19.298Z,7.35
2022-11-23T03:55:47.295Z,7.75
2022-11-23T03:58:15.164Z,8.32
2022-11-23T04:00:42.577Z,8.30
2022-11-23T04:03:34.154Z,8.35
2022-11-23T04:06:11.253Z,7.25
2022-11-23T04:08:47.417Z,8.10
2022-11-23T04:11:21.916Z,7.25
2022-11-23T04:13:50.974Z,7.60
2022-11-23T04:16:19.178Z,7.10
2022-11-23T04:18:46.317Z,5.65
2022-11-23T04:21:13.406Z,7.78
2022-11-23T04:23:40.394Z,6.00
2022-11-23T04:26:10.322Z,6.80
2022-11-23T04:28:40.885Z,8.45
2022-11-23T04:31:08.154Z,8.85
2022-11-23T04:33:45.963Z,5.78
2022-11-23T04:36:15.450Z,5.35
2022-11-23T04:38:44.815Z,6.55
2022-11-23T04:41:15.971Z,5.85
2022-11-23T04:43:43.136Z,6.22
2022-11-23T04:46:12.382Z,5.05
2022-11-23T04:48:39.595Z,6.32
2022-11-23T04:51:07.606Z,4.63
2022-11-23T04:53:37.680Z,5.93
2022-11-23T04:56:05.617Z,5.70
2022-11-23T04:58:36.899Z,5.70
2022-11-23T05:01:05.608Z,3.97
2022-11-23T05:03:36.493Z,6.28
2022-11-23T05:06:07.518Z,5.63
2022-11-23T05:09:11.852Z,6.28
2022-11-23T05:11:59.315Z,4.93
2022-11-23T05:14:27.347Z,6.25
2022-11-23T05:16:54.670Z,7.20
2022-11-23T05:19:21.810Z,5.15
2022-11-23T05:21:49.029Z,7.45
2022-11-23T05:24:16.397Z,6.63
2022-11-23T05:26:56.297Z,5.60
2022-11-23T05:29:23.691Z,6.10
2022-11-23T05:31:50.699Z,6.40
2022-11-23T05:34:18.465Z,5.65
2022-11-23T05:36:46.841Z,6.18
2022-11-23T05:39:16.119Z,5.60
2022-11-23T05:41:44.355Z,6.93
2022-11-23T05:44:25.814Z,7.97
2022-11-23T05:46:54.148Z,7.18
2022-11-23T05:49:21.863Z,8.18
2022-11-23T05:51:49.048Z,7.30
2022-11-23T05:54:16.999Z,8.10
2022-11-23T05:56:58.930Z,6.57
2022-11-23T05:59:36.263Z,10.48
2022-11-23T06:02:03.964Z,6.65
2022-11-23T06:04:35.436Z,6.80
2022-11-23T06:07:03.353Z,8.18
2022-11-23T06:09:39.551Z,5.93
2022-11-23T06:12:09.517Z,5.97
2022-11-23T06:14:36.684Z,5.43
2022-11-23T06:17:06.158Z,5.78
2022-11-23T06:19:44.688Z,6.40
2022-11-23T06:22:12.497Z,6.30
2022-11-23T06:24:51.253Z,6.15
2022-11-23T06:27:58.841Z,5.55
2022-11-23T06:30:30.939Z,4.85
2022-11-23T06:33:04.904Z,4.95
2022-11-23T06:35:37.730Z,4.53
2022-11-23T06:38:04.974Z,6.55
2022-11-23T06:40:34.008Z,4.55
2022-11-23T06:43:01.390Z,5.38
2022-11-23T06:45:37.580Z,3.67
2022-11-23T06:48:09.282Z,4.25
2022-11-23T06:50:41.729Z,5.35
2022-11-23T06:53:12.336Z,5.22
2022-11-23T06:56:02.644Z,7.32
2022-11-23T06:58:31.374Z,3.90
2022-11-23T07:01:06.757Z,5.07
2022-11-23T07:03:40.920Z,5.55
2022-11-23T07:06:24.109Z,4.07
2022-11-23T07:08:55.968Z,4.28
2022-11-23T07:11:32.663Z,4.63
2022-11-23T07:14:00.556Z,3.95
2022-11-23T07:16:29.826Z,4.55
2022-11-23T07:19:01.097Z,3.95
2022-11-23T07:21:28.312Z,3.78
2022-11-23T07:23:56.190Z,5.82
2022-11-23T07:26:23.295Z,5.47
2022-11-23T07:28:50.410Z,5.38
2022-11-23T07:31:17.619Z,5.88
2022-11-23T07:33:45.837Z,6.55
2022-11-23T07:36:13.459Z,5.45
2022-11-23T07:38:42.735Z,6.63
2022-11-23T07:41:11.546Z,7.75
2022-11-23T07:44:05.689Z,6.78
2022-11-23T07:46:32.713Z,7.95
2022-11-23T07:49:02.403Z,8.13
2022-11-23T07:51:30.109Z,7.60
2022-11-23T07:53:57.840Z,8.32
2022-11-23T07:56:25.078Z,10.88
2022-11-23T07:58:52.274Z,8.40
2022-11-23T08:01:20.355Z,10.85
2022-11-23T08:03:48.652Z,7.93
2022-11-23T08:06:16.216Z,7.25
2022-11-23T08:08:43.481Z,6.53
2022-11-23T08:11:11.233Z,8.50
2022-11-23T08:13:39.455Z,7.93
2022-11-23T08:16:06.802Z,8.35
2022-11-23T08:18:33.795Z,8.60
2022-11-23T08:21:01.708Z,8.60
2022-11-23T08:23:29.893Z,8.80
2022-11-23T08:25:57.761Z,8.25
2022-11-23T08:28:24.814Z,8.98
2022-11-23T08:30:51.915Z,12.45
2022-11-23T08:33:19.057Z,9.35
2022-11-23T08:35:46.089Z,9.73
2022-11-23T08:38:13.407Z,8.48
2022-11-23T08:40:41.077Z,8.68
2022-11-23T08:43:08.339Z,8.20
2022-11-23T08:45:35.416Z,8.60
2022-11-23T08:48:03.674Z,7.35
2022-11-23T08:50:31.487Z,8.45
2022-11-23T08:52:59.731Z,8.10
2022-11-23T08:55:28.081Z,12.38
2022-11-23T08:57:56.585Z,8.00
2022-11-23T09:00:24.364Z,10.43
2022-11-23T09:02:51.534Z,8.02
2022-11-23T09:05:18.506Z,14.35
2022-11-23T09:07:45.447Z,9.07
2022-11-23T09:10:17.720Z,6.93
2022-11-23T09:12:45.303Z,8.75
2022-11-23T09:15:12.427Z,8.25
2022-11-23T09:17:39.374Z,9.10
2022-11-23T09:20:07.220Z,9.77
2022-11-23T09:22:34.334Z,8.60
2022-11-23T09:25:01.422Z,6.80
2022-11-23T09:27:30.087Z,5.47
2022-11-23T09:29:57.035Z,8.13
2022-11-23T09:32:24.139Z,6.03
2022-11-23T09:34:51.157Z,7.22
2022-11-23T09:37:18.493Z,7.10
2022-11-23T09:39:45.494Z,9.05
2022-11-23T09:42:33.808Z,7.60
2022-11-23T09:45:19.742Z,6.80
2022-11-23T09:47:54.304Z,5.07
2022-11-23T09:50:28.823Z,6.20
2022-11-23T09:52:55.873Z,6.55
2022-11-23T09:55:51.897Z,7.82
2022-11-23T09:58:22.512Z,5.68
2022-11-23T10:01:16.895Z,6.50
2022-11-23T10:03:49.319Z,5.68
2022-11-23T10:06:27.335Z,5.50
2022-11-23T10:09:32.364Z,6.18
2022-11-23T10:12:11.387Z,6.43
2022-11-23T10:14:51.249Z,5.72
2022-11-23T10:17:39.968Z,6.50
2022-11-23T10:20:29.944Z,7.50
2022-11-23T10:23:02.013Z,5.82
2022-11-23T10:25:39.788Z,9.45
2022-11-23T10:28:13.887Z,6.50
2022-11-23T10:30:41.218Z,7.68
2022-11-23T10:33:31.703Z,8.00
2022-11-23T10:35:58.944Z,9.35
2022-11-23T10:38:27.803Z,9.20
2022-11-23T10:41:00.902Z,8.13
2022-11-23T10:43:38.512Z,7.70
2022-11-23T10:46:23.849Z,6.63
2022-11-23T10:48:52.386Z,8.02
2022-11-23T10:51:33.663Z,9.20
2022-11-23T10:54:05.684Z,5.80
2022-11-23T10:56:34.611Z,7.05
2022-11-23T10:59:01.712Z,7.70
2022-11-23T11:01:30.455Z,6.85
2022-11-23T11:04:06.755Z,8.80
2022-11-23T11:06:36.298Z,7.15
2022-11-23T11:09:20.065Z,6.85
2022-11-23T11:11:52.277Z,6.82
2022-11-23T11:14:23.658Z,8.10
2022-11-23T11:16:53.513Z,6.63
2022-11-23T11:19:34.802Z,7.30
2022-11-23T11:22:23.119Z,9.05
2022-11-23T11:24:50.302Z,8.90
2022-11-23T11:27:21.726Z,6.90
2022-11-23T11:29:55.489Z,7.18
2022-11-23T11:32:28.526Z,8.13
2022-11-23T11:35:01.620Z,7.43
2022-11-23T11:37:50.980Z,7.07
2022-11-23T11:40:50.779Z,6.75
2022-11-23T11:43:54.133Z,7.00
2022-11-23T11:47:16.917Z,7.25
2022-11-23T11:49:47.520Z,9.07
2022-11-23T11:52:22.468Z,12.20
2022-11-23T11:55:04.815Z,9.63
2022-11-23T11:57:42.445Z,8.95
2022-11-23T12:00:19.445Z,8.45
2022-11-23T12:03:20.338Z,8.93
2022-11-23T12:05:51.320Z,10.65
2022-11-23T12:08:48.357Z,7.05
2022-11-23T12:11:15.892Z,9.80
2022-11-23T12:13:47.046Z,9.73
2022-11-23T12:16:26.797Z,8.82
2022-11-23T12:19:21.075Z,12.85
2022-11-23T12:22:22.490Z,7.80
2022-11-23T12:25:04.679Z,10.05
2022-11-23T12:28:01.032Z,7.18
2022-11-23T12:30:31.589Z,7.85
2022-11-23T12:33:07.672Z,8.35
2022-11-23T12:36:07.458Z,7.38
2022-11-23T12:38:53.875Z,7.38
2022-11-23T12:41:39.513Z,9.20
2022-11-23T12:44:19.155Z,8.18
2022-11-23T12:46:51.508Z,7.93
2022-11-23T12:49:38.756Z,9.27
2022-11-23T12:52:50.226Z,9.73
2022-11-23T12:55:35.915Z,9.98
2022-11-23T12:58:19.859Z,12.98
2022-11-23T13:00:58.486Z,7.70
2022-11-23T13:04:06.677Z,12.07
2022-11-23T13:07:31.961Z,9.63
2022-11-23T13:10:16.198Z,10.20
2022-11-23T13:12:55.392Z,9.32
2022-11-23T13:15:44.371Z,9.35
2022-11-23T13:18:34.989Z,10.25
2022-11-23T13:21:30.624Z,8.75
2022-11-23T13:23:58.100Z,9.98
2022-11-23T13:26:28.604Z,8.13
2022-11-23T13:28:58.686Z,7.78
2022-11-23T13:31:31.728Z,8.93
2022-11-23T13:34:01.970Z,9.77
2022-11-23T13:37:10.592Z,10.35
2022-11-23T13:39:44.410Z,10.23
2022-11-23T13:42:12.301Z,8.57
2022-11-23T13:44:42.348Z,9.32
2022-11-23T13:47:15.112Z,8.68
2022-11-23T13:49:48.281Z,9.35
2022-11-23T13:52:22.193Z,9.07
2022-11-23T13:55:13.576Z,10.63
2022-11-23T13:57:42.908Z,8.15
2022-11-23T14:00:49.096Z,11.05
2022-11-23T14:03:44.852Z,10.45
2022-11-23T14:06:36.647Z,9.93
2022-11-23T14:09:32.341Z,8.25
2022-11-23T14:12:11.726Z,6.97
2022-11-23T14:15:24.985Z,8.73
2022-11-23T14:18:08.170Z,8.18
2022-11-23T14:21:08.598Z,7.57
2022-11-23T14:24:00.715Z,7.53
2022-11-23T14:26:37.423Z,8.45
2022-11-23T14:29:34.388Z,8.95
2022-11-23T14:32:19.750Z,9.88
2022-11-23T14:35:15.768Z,9.10
2022-11-23T14:38:32.130Z,8.00
2022-11-23T14:41:16.809Z,8.38
2022-11-23T14:43:47.633Z,8.60
2022-11-23T14:46:28.452Z,7.40
2022-11-23T14:49:10.858Z,8.00
2022-11-23T14:51:49.915Z,6.22
2022-11-23T14:54:17.646Z,6.63
2022-11-23T14:56:47.817Z,6.75
2022-11-23T14:59:18.540Z,7.35
2022-11-23T15:01:52.398Z,7.63
2022-11-23T15:05:07.044Z,8.10
2022-11-23T15:08:11.683Z,7.13
2022-11-23T15:10:39.123Z,6.85
2022-11-23T15:13:27.284Z,8.10
2022-11-23T15:15:56.731Z,8.57
2022-11-23T15:18:33.088Z,9.50
2022-11-23T15:21:26.863Z,6.90
2022-11-23T15:23:58.000Z,7.68
2022-11-23T15:26:48.970Z,7.90
2022-11-23T15:29:37.312Z,6.93
2022-11-23T15:32:30.376Z,7.50
2022-11-23T15:35:03.631Z,8.07
2022-11-23T15:37:33.377Z,6.18
2022-11-23T15:40:06.855Z,8.52
2022-11-23T15:45:17.520Z,8.35
2022-11-23T15:47:46.503Z,7.97
2022-11-23T15:50:17.768Z,8.63
2022-11-23T15:55:21.631Z,9.45
2022-11-23T15:57:59.466Z,9.73
2022-11-23T16:00:29.916Z,10.27
2022-11-23T16:03:40.713Z,11.00
2022-11-23T16:06:14.315Z,8.93
2022-11-23T16:08:45.187Z,8.85
2022-11-23T16:11:33.859Z,11.52
2022-11-23T16:14:31.695Z,8.38
2022-11-23T16:17:26.155Z,9.02
2022-11-23T16:20:00.861Z,9.57
2022-11-23T16:22:38.931Z,10.63
2022-11-23T16:25:09.633Z,9.30
2022-11-23T16:27:40.435Z,10.07
2022-11-23T16:30:24.699Z,10.70
2022-11-23T16:32:54.635Z,8.55
2022-11-23T16:35:22.780Z,8.38
2022-11-23T16:37:52.794Z,9.35
2022-11-23T16:40:20.370Z,9.85
2022-11-23T16:42:55.592Z,8.77
2022-11-23T16:45:23.524Z,8.18
2022-11-23T16:48:05.155Z,8.93
2022-11-23T16:50:34.709Z,7.93
2022-11-23T16:53:15.371Z,8.48
2022-11-23T16:55:43.931Z,9.82
2022-11-23T16:58:24.789Z,9.55
2022-11-23T17:00:57.667Z,8.57
2022-11-23T17:03:27.827Z,9.02
2022-11-23T17:05:57.960Z,8.87
2022-11-23T17:08:37.096Z,8.85
2022-11-23T17:11:17.898Z,8.40
2022-11-23T17:13:57.124Z,9.60
2022-11-23T17:16:27.315Z,8.50
2022-11-23T17:18:57.691Z,10.13
2022-11-23T17:21:25.386Z,10.45
2022-11-23T17:23:54.066Z,8.00
2022-11-23T17:26:35.809Z,10.68
2022-11-23T17:29:06.801Z,10.40
2022-11-23T17:31:38.087Z,9.52
2022-11-23T17:34:14.113Z,9.95
2022-11-23T17:36:44.836Z,10.18
2022-11-23T17:39:28.805Z,8.75
2022-11-23T17:42:05.087Z,10.93
2022-11-23T17:44:42.384Z,11.45
2022-11-23T17:47:23.909Z,10.35
2022-11-23T17:50:02.448Z,10.57
2022-11-23T17:53:25.412Z,9.65
2022-11-23T17:55:49.732Z,11.18
2022-11-23T17:58:17.276Z,11.05
2022-11-23T18:00:44.714Z,9.20
2022-11-23T18:03:15.052Z,10.10
2022-11-23T18:05:48.201Z,10.60
2022-11-23T18:08:15.304Z,10.40
2022-11-23T18:10:42.693Z,10.48
2022-11-23T18:13:09.808Z,10.82
2022-11-23T18:15:37.408Z,10.20
2022-11-23T18:18:07.684Z,11.88
2022-11-23T18:20:34.835Z,10.02
2022-11-23T18:23:02.589Z,11.07
2022-11-23T18:25:32.693Z,10.10
2022-11-23T18:28:00.492Z,11.50
2022-11-23T18:30:36.022Z,10.70
2022-11-23T18:33:03.771Z,12.77
2022-11-23T18:35:33.690Z,10.52
2022-11-23T18:38:01.278Z,9.98
2022-11-23T18:40:33.368Z,9.82
2022-11-23T18:43:01.307Z,12.55
2022-11-23T18:45:29.138Z,12.88
2022-11-23T18:47:56.710Z,11.50
2022-11-23T18:50:24.131Z,11.07
2022-11-23T18:52:51.632Z,11.45
2022-11-23T18:55:19.251Z,12.15
2022-11-23T18:57:56.066Z,10.90
2022-11-23T19:00:26.247Z,10.45
2022-11-23T19:02:57.847Z,10.40
2022-11-23T19:05:33.307Z,10.30
2022-11-23T19:08:06.529Z,9.80
2022-11-23T19:10:36.111Z,10.67
2022-11-23T19:13:07.088Z,10.53
2022-11-23T19:15:34.788Z,9.40
2022-11-23T19:18:04.502Z,9.68
2022-11-23T19:20:35.935Z,10.60
2022-11-23T19:23:02.969Z,9.85
2022-11-23T19:25:35.184Z,11.70
2022-11-23T19:28:08.707Z,9.85
2022-11-23T19:30:38.330Z,11.90
2022-11-23T19:33:06.083Z,12.55
2022-11-23T19:35:33.807Z,10.75
2022-11-23T19:38:03.542Z,12.27
2022-11-23T19:40:36.843Z,11.88
2022-11-23T19:43:10.185Z,10.55
2022-11-23T19:45:38.456Z,11.25
2022-11-23T19:48:08.901Z,10.77
2022-11-23T19:50:36.438Z,13.25
2022-11-23T19:53:12.194Z,11.10
2022-11-23T19:56:12.394Z,11.77
2022-11-23T19:58:39.813Z,9.18
2022-11-23T20:01:17.888Z,13.35
2022-11-23T20:03:55.102Z,10.40
2022-11-23T20:06:28.708Z,12.02
2022-11-23T20:09:08.515Z,9.50
2022-11-23T20:11:44.782Z,12.20
2022-11-23T20:14:19.522Z,10.75
2022-11-23T20:16:49.495Z,11.85
2022-11-23T20:19:19.596Z,12.02
2022-11-23T20:21:52.820Z,11.57
2022-11-23T20:24:25.562Z,12.48
2022-11-23T20:26:54.154Z,9.57
2022-11-23T20:29:23.858Z,11.52
2022-11-23T20:31:55.028Z,12.43
2022-11-23T20:34:26.466Z,9.45
2022-11-23T20:36:53.697Z,10.05
2022-11-23T20:39:23.317Z,8.63
2022-11-23T20:41:50.367Z,10.68
2022-11-23T20:44:21.133Z,10.77
2022-11-23T20:47:01.747Z,12.23
2022-11-23T20:49:35.649Z,12.60
2022-11-23T20:52:03.893Z,11.05
2022-11-23T20:54:43.550Z,12.32
2022-11-23T20:57:17.568Z,10.90
2022-11-23T21:00:05.704Z,10.98
2022-11-23T21:02:33.075Z,11.07
2022-11-23T21:05:00.403Z,11.02
2022-11-23T21:07:27.523Z,9.55
2022-11-23T21:09:56.543Z,10.95
2022-11-23T21:12:47.631Z,9.98
2022-11-23T21:15:20.222Z,12.07
2022-11-23T21:17:49.889Z,11.80
2022-11-23T21:20:17.319Z,10.18
2022-11-23T21:22:44.623Z,12.10
2022-11-23T21:25:13.671Z,11.05
2022-11-23T21:27:42.430Z,10.63
2022-11-23T21:30:10.583Z,11.65
2022-11-23T21:32:37.818Z,13.57
2022-11-23T21:35:07.878Z,9.93
2022-11-23T21:37:34.998Z,12.98
2022-11-23T21:40:08.684Z,11.40
2022-11-23T21:42:38.095Z,12.82
2022-11-23T21:45:05.588Z,10.77
2022-11-23T21:47:32.583Z,11.40
2022-11-23T21:50:07.191Z,12.77
2022-11-23T21:52:34.278Z,10.85
2022-11-23T21:55:01.388Z,13.50
2022-11-23T21:57:30.163Z,12.65
2022-11-23T22:00:01.819Z,11.57
2022-11-23T22:02:39.463Z,10.55
2022-11-23T22:05:09.047Z,10.95
2022-11-23T22:07:36.180Z,10.18
2022-11-23T22:10:06.674Z,10.07
2022-11-23T22:12:36.356Z,12.73
2022-11-23T22:15:06.646Z,10.68
2022-11-23T22:17:35.731Z,10.93
2022-11-23T22:20:02.830Z,9.52
2022-11-23T22:22:33.427Z,13.32
2022-11-23T22:25:04.761Z,10.48
2022-11-23T22:27:31.841Z,10.75
2022-11-23T22:30:02.270Z,11.00
2022-11-23T22:32:31.688Z,11.82
2022-11-23T22:35:01.904Z,10.18
2022-11-23T22:37:32.592Z,12.90
2022-11-23T22:40:02.807Z,11.52
2022-11-23T22:42:30.052Z,10.65
2022-11-23T22:44:57.313Z,11.52
2022-11-23T22:47:29.419Z,12.48
2022-11-23T22:49:56.531Z,11.93
2022-11-23T22:52:26.019Z,10.73
2022-11-23T22:54:55.645Z,11.90
2022-11-23T22:57:25.852Z,10.65
2022-11-23T22:59:53.561Z,10.43
2022-11-23T23:02:20.959Z,12.07
2022-11-23T23:04:48.270Z,10.63
2022-11-23T23:07:15.396Z,11.90
2022-11-23T23:09:43.078Z,13.55
2022-11-23T23:12:11.838Z,11.38
2022-11-23T23:14:38.914Z,12.80
2022-11-23T23:17:06.121Z,11.27
2022-11-23T23:19:33.199Z,10.60
2022-11-23T23:22:00.324Z,10.32
2022-11-23T23:24:27.592Z,9.55
2022-11-23T23:26:55.830Z,11.93
2022-11-23T23:29:22.969Z,10.77
2022-11-23T23:31:50.272Z,11.25
2022-11-23T23:34:23.962Z,10.88
2022-11-23T23:39:20.465Z,10.57
2022-11-23T23:41:48.134Z,11.07
2022-11-23T23:44:15.265Z,8.65
2022-11-23T23:46:47.076Z,10.40
2022-11-23T23:49:14.962Z,11.50
2022-11-23T23:51:50.126Z,10.07
2022-11-23T23:54:18.884Z,11.07
2022-11-23T23:56:45.996Z,11.20
2022-11-23T23:59:20.374Z,11.23
